MPH8311 LEMD-LSZH
Flight info
| Callsign | MPH8311 |
|---|---|
| Flight time | 2h 3m |
| Altitude | 34000 |
| Route | PINAR N870 BCN M985 LUMAS DCT UNANA DCT STP DCT RAPED DCT PIGOS DCT EKSID DCT NOSTA DCT NOPMU DCT NEDED DCT CANNE Z651 KELIP |
| Aircraft | MD11/H-SDE1E2E3FGHIJ2J3J4J5M1RWXY/LB1D1 |
Departure
| Time | 2026-05-05 17:51 |
|---|---|
| Airport | Adolfo Suárez Madrid–Barajas Airport (LEMD) |
Arrival
| Time | 2026-05-05 19:54 |
|---|---|
| Airport | Zürich Airport (LSZH) |
| Time | Latitude | Longitude | Altitude | Speed | Heading |
|---|---|---|---|---|---|
| 2026-05-05 17:23 | 40.46046 | -3.55825 | 1959 ft | 0 kts | 360° |
| 2026-05-05 17:38 | 40.46072 | -3.55827 | 1959 ft | 7 kts | 354° |
| 2026-05-05 17:38 | 40.46108 | -3.55867 | 1960 ft | 7 kts | 295° |
| 2026-05-05 17:39 | 40.46115 | -3.55940 | 1962 ft | 9 kts | 272° |
| 2026-05-05 17:39 | 40.46115 | -3.56028 | 1964 ft | 11 kts | 270° |
| 2026-05-05 17:39 | 40.46115 | -3.56132 | 1967 ft | 12 kts | 270° |
| 2026-05-05 17:39 | 40.46115 | -3.56253 | 1974 ft | 14 kts | 270° |
| 2026-05-05 17:40 | 40.46114 | -3.56380 | 1978 ft | 13 kts | 269° |
| 2026-05-05 17:40 | 40.46122 | -3.56476 | 1980 ft | 10 kts | 297° |
| 2026-05-05 17:40 | 40.46189 | -3.56508 | 1980 ft | 13 kts | 360° |
| 2026-05-05 17:40 | 40.46282 | -3.56528 | 1982 ft | 9 kts | 319° |
| 2026-05-05 17:41 | 40.46316 | -3.56582 | 1984 ft | 9 kts | 331° |
| 2026-05-05 17:41 | 40.46400 | -3.56589 | 1981 ft | 16 kts | 1° |
| 2026-05-05 17:41 | 40.46540 | -3.56578 | 1983 ft | 24 kts | 3° |
| 2026-05-05 17:41 | 40.46733 | -3.56564 | 1984 ft | 31 kts | 3° |
| 2026-05-05 17:42 | 40.46961 | -3.56550 | 1985 ft | 34 kts | 2° |
| 2026-05-05 17:42 | 40.47164 | -3.56646 | 1991 ft | 30 kts | 322° |
| 2026-05-05 17:42 | 40.47324 | -3.56807 | 1996 ft | 29 kts | 322° |
| 2026-05-05 17:42 | 40.47488 | -3.56974 | 1999 ft | 31 kts | 322° |
| 2026-05-05 17:43 | 40.47661 | -3.57150 | 2002 ft | 32 kts | 322° |
| 2026-05-05 17:43 | 40.47838 | -3.57330 | 2008 ft | 33 kts | 322° |
| 2026-05-05 17:43 | 40.48019 | -3.57514 | 2006 ft | 33 kts | 323° |
| 2026-05-05 17:43 | 40.48201 | -3.57698 | 2001 ft | 32 kts | 322° |
| 2026-05-05 17:44 | 40.48376 | -3.57870 | 1999 ft | 30 kts | 327° |
| 2026-05-05 17:44 | 40.48537 | -3.58003 | 2004 ft | 23 kts | 328° |
| 2026-05-05 17:44 | 40.48679 | -3.58048 | 2007 ft | 21 kts | 359° |
| 2026-05-05 17:44 | 40.48815 | -3.58048 | 2009 ft | 16 kts | 7° |
| 2026-05-05 17:45 | 40.48856 | -3.57970 | 2006 ft | 12 kts | 82° |
| 2026-05-05 17:45 | 40.48858 | -3.57824 | 2002 ft | 20 kts | 90° |
| 2026-05-05 17:45 | 40.48859 | -3.57615 | 1998 ft | 26 kts | 90° |
| 2026-05-05 17:45 | 40.48859 | -3.57356 | 1994 ft | 31 kts | 89° |
| 2026-05-05 17:46 | 40.48861 | -3.57068 | 1988 ft | 32 kts | 90° |
| 2026-05-05 17:46 | 40.48862 | -3.56776 | 1982 ft | 32 kts | 90° |
| 2026-05-05 17:46 | 40.48863 | -3.56477 | 1975 ft | 32 kts | 90° |
| 2026-05-05 17:46 | 40.48870 | -3.56287 | 1974 ft | 13 kts | 65° |
| 2026-05-05 17:47 | 40.48946 | -3.56245 | 1969 ft | 13 kts | 2° |
| 2026-05-05 17:47 | 40.49055 | -3.56245 | 1969 ft | 18 kts | 0° |
| 2026-05-05 17:47 | 40.49191 | -3.56245 | 1973 ft | 21 kts | 359° |
| 2026-05-05 17:47 | 40.49352 | -3.56247 | 1969 ft | 25 kts | 359° |
| 2026-05-05 17:48 | 40.49528 | -3.56249 | 1971 ft | 25 kts | 360° |
| 2026-05-05 17:48 | 40.49693 | -3.56250 | 1972 ft | 23 kts | 360° |
| 2026-05-05 17:48 | 40.49849 | -3.56251 | 1970 ft | 20 kts | 359° |
| 2026-05-05 17:48 | 40.49933 | -3.56209 | 1968 ft | 10 kts | 69° |
| 2026-05-05 17:49 | 40.49941 | -3.56111 | 1965 ft | 12 kts | 87° |
| 2026-05-05 17:49 | 40.49965 | -3.55996 | 1970 ft | 13 kts | 61° |
| 2026-05-05 17:49 | 40.50033 | -3.55925 | 1967 ft | 11 kts | 12° |
| 2026-05-05 17:49 | 40.50067 | -3.55923 | 1967 ft | 0 kts | 0° |
| 2026-05-05 17:50 | 40.50110 | -3.55923 | 1967 ft | 32 kts | 0° |
| 2026-05-05 17:50 | 40.50623 | -3.55925 | 1977 ft | 114 kts | 359° |
| 2026-05-05 17:50 | 40.51655 | -3.55930 | 1961 ft | 179 kts | 0° |
| 2026-05-05 17:50 | 40.52955 | -3.55886 | 2417 ft | 192 kts | 356° |
| 2026-05-05 17:51 | 40.54305 | -3.55731 | 3094 ft | 197 kts | 9° |
| 2026-05-05 17:51 | 40.55690 | -3.55265 | 3641 ft | 214 kts | 13° |
| 2026-05-05 17:51 | 40.57103 | -3.54650 | 4438 ft | 213 kts | 13° |
| 2026-05-05 17:51 | 40.58483 | -3.54023 | 5243 ft | 212 kts | 15° |
| 2026-05-05 17:52 | 40.59819 | -3.53178 | 5994 ft | 219 kts | 30° |
| 2026-05-05 17:52 | 40.61056 | -3.51860 | 6385 ft | 238 kts | 36° |
| 2026-05-05 17:52 | 40.62347 | -3.50388 | 6657 ft | 252 kts | 36° |
| 2026-05-05 17:52 | 40.63706 | -3.48839 | 6938 ft | 267 kts | 37° |
| 2026-05-05 17:53 | 40.65155 | -3.47215 | 7422 ft | 279 kts | 36° |
| 2026-05-05 17:53 | 40.66653 | -3.45563 | 8186 ft | 283 kts | 36° |
| 2026-05-05 17:53 | 40.68184 | -3.43891 | 8895 ft | 289 kts | 36° |
| 2026-05-05 17:53 | 40.69740 | -3.42182 | 9660 ft | 293 kts | 37° |
| 2026-05-05 17:54 | 40.71310 | -3.40443 | 10390 ft | 296 kts | 38° |
| 2026-05-05 17:54 | 40.72890 | -3.38679 | 11126 ft | 299 kts | 38° |
| 2026-05-05 17:54 | 40.74486 | -3.36889 | 11873 ft | 303 kts | 38° |
| 2026-05-05 17:54 | 40.76074 | -3.35103 | 12622 ft | 305 kts | 38° |
| 2026-05-05 17:55 | 40.77697 | -3.33274 | 13375 ft | 309 kts | 38° |
| 2026-05-05 17:55 | 40.79339 | -3.31420 | 14095 ft | 312 kts | 38° |
| 2026-05-05 17:55 | 40.80997 | -3.29545 | 14804 ft | 315 kts | 38° |
| 2026-05-05 17:55 | 40.82671 | -3.27651 | 15514 ft | 318 kts | 38° |
| 2026-05-05 17:56 | 40.84305 | -3.25660 | 16213 ft | 324 kts | 44° |
| 2026-05-05 17:56 | 40.85673 | -3.23165 | 16373 ft | 350 kts | 62° |
| 2026-05-05 17:56 | 40.86571 | -3.20063 | 16523 ft | 373 kts | 72° |
| 2026-05-05 17:56 | 40.87255 | -3.16663 | 16682 ft | 393 kts | 75° |
| 2026-05-05 17:57 | 40.87896 | -3.13080 | 16980 ft | 406 kts | 76° |
| 2026-05-05 17:57 | 40.88543 | -3.09432 | 17626 ft | 410 kts | 75° |
| 2026-05-05 17:57 | 40.88986 | -3.06997 | 18066 ft | 412 kts | 75° |
| 2026-05-05 17:57 | 40.89675 | -3.03302 | 18631 ft | 417 kts | 74° |
| 2026-05-05 17:58 | 40.90624 | -2.98340 | 19289 ft | 424 kts | 74° |
| 2026-05-05 17:58 | 40.91360 | -2.94546 | 19795 ft | 429 kts | 73° |
| 2026-05-05 17:58 | 40.92108 | -2.90704 | 20283 ft | 434 kts | 73° |
| 2026-05-05 17:58 | 40.92867 | -2.86815 | 20776 ft | 439 kts | 73° |
| 2026-05-05 17:59 | 40.93633 | -2.82882 | 21257 ft | 445 kts | 73° |
| 2026-05-05 17:59 | 40.94144 | -2.80250 | 21575 ft | 448 kts | 73° |
| 2026-05-05 17:59 | 40.94923 | -2.76233 | 22038 ft | 453 kts | 73° |
| 2026-05-05 17:59 | 40.95707 | -2.72179 | 22520 ft | 458 kts | 73° |
| 2026-05-05 18:00 | 40.96500 | -2.68071 | 22988 ft | 463 kts | 73° |
| 2026-05-05 18:00 | 40.97298 | -2.63929 | 23558 ft | 465 kts | 73° |
| 2026-05-05 18:00 | 40.98095 | -2.59763 | 23950 ft | 470 kts | 73° |
| 2026-05-05 18:00 | 40.98893 | -2.55549 | 24323 ft | 475 kts | 73° |
| 2026-05-05 18:01 | 40.99700 | -2.51289 | 24685 ft | 479 kts | 73° |
| 2026-05-05 18:01 | 41.00516 | -2.46985 | 25037 ft | 485 kts | 73° |
| 2026-05-05 18:01 | 41.01343 | -2.42637 | 25399 ft | 489 kts | 73° |
| 2026-05-05 18:01 | 41.02176 | -2.38252 | 25745 ft | 494 kts | 73° |
| 2026-05-05 18:02 | 41.03016 | -2.33817 | 26112 ft | 499 kts | 73° |
| 2026-05-05 18:02 | 41.03863 | -2.29345 | 26457 ft | 503 kts | 73° |
| 2026-05-05 18:02 | 41.04707 | -2.24887 | 26791 ft | 508 kts | 74° |
| 2026-05-05 18:02 | 41.05565 | -2.20349 | 27129 ft | 512 kts | 74° |
| 2026-05-05 18:03 | 41.06432 | -2.15749 | 27462 ft | 517 kts | 74° |
| 2026-05-05 18:03 | 41.07307 | -2.11105 | 27779 ft | 521 kts | 74° |
| 2026-05-05 18:03 | 41.08183 | -2.06430 | 28099 ft | 526 kts | 74° |
| 2026-05-05 18:03 | 41.09062 | -2.01706 | 28412 ft | 530 kts | 74° |
| 2026-05-05 18:04 | 41.09945 | -1.96949 | 28728 ft | 534 kts | 74° |
| 2026-05-05 18:04 | 41.10834 | -1.92155 | 29026 ft | 537 kts | 74° |
| 2026-05-05 18:04 | 41.11729 | -1.87328 | 29422 ft | 540 kts | 75° |
| 2026-05-05 18:04 | 41.12622 | -1.82498 | 29945 ft | 540 kts | 75° |
| 2026-05-05 18:05 | 41.13518 | -1.77647 | 30210 ft | 543 kts | 75° |
| 2026-05-05 18:05 | 41.14405 | -1.72832 | 30520 ft | 546 kts | 75° |
| 2026-05-05 18:05 | 41.15305 | -1.67936 | 30816 ft | 548 kts | 75° |
| 2026-05-05 18:05 | 41.16205 | -1.63023 | 31129 ft | 548 kts | 75° |
| 2026-05-05 18:06 | 41.17103 | -1.58112 | 31487 ft | 547 kts | 75° |
| 2026-05-05 18:06 | 41.17696 | -1.54863 | 31729 ft | 546 kts | 75° |
| 2026-05-05 18:06 | 41.18888 | -1.48311 | 32190 ft | 545 kts | 76° |
| 2026-05-05 18:06 | 41.19768 | -1.43416 | 32535 ft | 544 kts | 76° |
| 2026-05-05 18:07 | 41.20639 | -1.38531 | 32857 ft | 544 kts | 76° |
| 2026-05-05 18:07 | 41.21509 | -1.33647 | 33191 ft | 543 kts | 76° |
| 2026-05-05 18:07 | 41.22377 | -1.28774 | 33505 ft | 542 kts | 76° |
| 2026-05-05 18:07 | 41.23234 | -1.23972 | 33805 ft | 541 kts | 76° |
| 2026-05-05 18:08 | 41.24105 | -1.19093 | 33925 ft | 545 kts | 76° |
| 2026-05-05 18:08 | 41.25853 | -1.09274 | 33932 ft | 545 kts | 77° |
| 2026-05-05 18:09 | 41.27589 | -0.99466 | 33933 ft | 545 kts | 77° |
| 2026-05-05 18:09 | 41.29316 | -0.89655 | 33926 ft | 545 kts | 77° |
| 2026-05-05 18:10 | 41.31023 | -0.79903 | 33928 ft | 545 kts | 77° |
| 2026-05-05 18:10 | 41.32735 | -0.70071 | 33919 ft | 546 kts | 78° |
| 2026-05-05 18:11 | 41.34443 | -0.60208 | 33922 ft | 547 kts | 78° |
| 2026-05-05 18:11 | 41.35605 | -0.50268 | 33912 ft | 539 kts | 89° |
| 2026-05-05 18:12 | 41.35554 | -0.40354 | 33920 ft | 535 kts | 94° |
| 2026-05-05 18:12 | 41.35293 | -0.30444 | 33917 ft | 536 kts | 94° |
| 2026-05-05 18:13 | 41.35142 | -0.20583 | 33907 ft | 537 kts | 92° |
| 2026-05-05 18:13 | 41.35053 | -0.10653 | 33916 ft | 537 kts | 92° |
| 2026-05-05 18:14 | 41.34967 | -0.00723 | 33903 ft | 537 kts | 92° |
| 2026-05-05 18:14 | 41.34866 | 0.09208 | 33909 ft | 537 kts | 93° |
| 2026-05-05 18:15 | 41.34753 | 0.19083 | 33892 ft | 537 kts | 94° |
| 2026-05-05 18:15 | 41.34607 | 0.29054 | 33911 ft | 543 kts | 94° |
| 2026-05-05 18:16 | 41.34455 | 0.39107 | 33911 ft | 543 kts | 94° |
| 2026-05-05 18:16 | 41.34310 | 0.49176 | 33919 ft | 545 kts | 94° |
| 2026-05-05 18:17 | 41.34157 | 0.59197 | 33916 ft | 545 kts | 95° |
| 2026-05-05 18:17 | 41.33987 | 0.69255 | 33924 ft | 545 kts | 95° |
| 2026-05-05 18:18 | 41.33815 | 0.79339 | 33908 ft | 545 kts | 95° |
| 2026-05-05 18:18 | 41.33637 | 0.89437 | 33924 ft | 546 kts | 95° |
| 2026-05-05 18:19 | 41.33451 | 0.99540 | 33912 ft | 546 kts | 95° |
| 2026-05-05 18:19 | 41.33257 | 1.09571 | 33908 ft | 546 kts | 95° |
| 2026-05-05 18:20 | 41.33043 | 1.19671 | 33912 ft | 546 kts | 96° |
| 2026-05-05 18:20 | 41.32812 | 1.29779 | 33913 ft | 546 kts | 96° |
| 2026-05-05 18:21 | 41.32585 | 1.39873 | 33912 ft | 546 kts | 96° |
| 2026-05-05 18:21 | 41.32357 | 1.49890 | 33910 ft | 546 kts | 96° |
| 2026-05-05 18:22 | 41.32120 | 1.59975 | 33906 ft | 546 kts | 97° |
| 2026-05-05 18:22 | 41.31867 | 1.70078 | 33908 ft | 546 kts | 97° |
| 2026-05-05 18:23 | 41.31593 | 1.80165 | 33903 ft | 546 kts | 97° |
| 2026-05-05 18:23 | 41.31320 | 1.90180 | 33910 ft | 546 kts | 97° |
| 2026-05-05 18:24 | 41.31044 | 2.00279 | 33909 ft | 549 kts | 98° |
| 2026-05-05 18:24 | 41.30881 | 2.10443 | 33910 ft | 553 kts | 91° |
| 2026-05-05 18:25 | 41.32150 | 2.20613 | 33908 ft | 561 kts | 79° |
| 2026-05-05 18:25 | 41.34151 | 2.30645 | 33882 ft | 559 kts | 78° |
| 2026-05-05 18:26 | 41.36068 | 2.40578 | 33900 ft | 559 kts | 79° |
| 2026-05-05 18:26 | 41.37864 | 2.50658 | 33896 ft | 559 kts | 81° |
| 2026-05-05 18:27 | 41.39609 | 2.60750 | 33894 ft | 559 kts | 81° |
| 2026-05-05 18:27 | 41.41349 | 2.70837 | 33867 ft | 559 kts | 81° |
| 2026-05-05 18:28 | 41.43942 | 2.85905 | 33889 ft | 558 kts | 81° |
| 2026-05-05 18:28 | 41.45668 | 2.95995 | 33886 ft | 558 kts | 81° |
| 2026-05-05 18:29 | 41.47384 | 3.06088 | 33835 ft | 558 kts | 81° |
| 2026-05-05 18:29 | 41.49087 | 3.16160 | 33881 ft | 555 kts | 82° |
| 2026-05-05 18:30 | 41.50747 | 3.26211 | 33885 ft | 555 kts | 82° |
| 2026-05-05 18:30 | 41.52396 | 3.36200 | 33895 ft | 555 kts | 82° |
| 2026-05-05 18:31 | 41.54068 | 3.46253 | 33883 ft | 555 kts | 81° |
| 2026-05-05 18:31 | 41.55727 | 3.56310 | 33883 ft | 555 kts | 82° |
| 2026-05-05 18:32 | 41.57378 | 3.66375 | 33886 ft | 555 kts | 82° |
| 2026-05-05 18:32 | 41.59016 | 3.76391 | 33887 ft | 555 kts | 82° |
| 2026-05-05 18:33 | 41.60641 | 3.86387 | 33871 ft | 554 kts | 82° |
| 2026-05-05 18:33 | 41.62254 | 3.96449 | 33878 ft | 554 kts | 82° |
| 2026-05-05 18:34 | 41.63864 | 4.06512 | 33881 ft | 554 kts | 82° |
| 2026-05-05 18:34 | 41.65958 | 4.16441 | 33875 ft | 560 kts | 69° |
| 2026-05-05 18:35 | 41.69928 | 4.25414 | 33914 ft | 564 kts | 53° |
| 2026-05-05 18:35 | 41.74944 | 4.33417 | 33877 ft | 566 kts | 49° |
| 2026-05-05 18:36 | 41.80107 | 4.41381 | 33876 ft | 566 kts | 50° |
| 2026-05-05 18:36 | 41.85150 | 4.49489 | 33878 ft | 566 kts | 51° |
| 2026-05-05 18:37 | 41.90124 | 4.57670 | 33870 ft | 566 kts | 51° |
| 2026-05-05 18:37 | 41.95059 | 4.65822 | 33878 ft | 567 kts | 51° |
| 2026-05-05 18:38 | 42.00039 | 4.74050 | 33884 ft | 567 kts | 51° |
| 2026-05-05 18:38 | 42.05015 | 4.82285 | 33884 ft | 567 kts | 51° |
| 2026-05-05 18:39 | 42.09984 | 4.90530 | 33919 ft | 567 kts | 51° |
| 2026-05-05 18:39 | 42.14916 | 4.98736 | 33870 ft | 567 kts | 52° |
| 2026-05-05 18:40 | 42.19876 | 5.07020 | 33886 ft | 568 kts | 52° |
| 2026-05-05 18:40 | 42.24808 | 5.15336 | 33886 ft | 568 kts | 52° |
| 2026-05-05 18:41 | 42.29744 | 5.23657 | 33908 ft | 568 kts | 52° |
| 2026-05-05 18:41 | 42.34689 | 5.31983 | 33884 ft | 568 kts | 52° |
| 2026-05-05 18:42 | 42.39596 | 5.40259 | 33884 ft | 568 kts | 52° |
| 2026-05-05 18:42 | 42.44526 | 5.48601 | 33892 ft | 568 kts | 52° |
| 2026-05-05 18:43 | 42.49455 | 5.56965 | 33913 ft | 568 kts | 52° |
| 2026-05-05 18:43 | 42.54391 | 5.65366 | 33899 ft | 571 kts | 52° |
| 2026-05-05 18:44 | 42.59299 | 5.73742 | 33875 ft | 570 kts | 52° |
| 2026-05-05 18:44 | 42.64209 | 5.82145 | 33901 ft | 567 kts | 52° |
| 2026-05-05 18:45 | 42.69103 | 5.90544 | 33898 ft | 567 kts | 52° |
| 2026-05-05 18:45 | 42.73979 | 5.98969 | 33898 ft | 567 kts | 53° |
| 2026-05-05 18:46 | 42.78841 | 6.07423 | 33906 ft | 567 kts | 53° |
| 2026-05-05 18:46 | 42.83724 | 6.15722 | 33908 ft | 564 kts | 48° |
| 2026-05-05 18:47 | 42.89427 | 6.23042 | 33933 ft | 563 kts | 39° |
| 2026-05-05 18:47 | 42.95500 | 6.29778 | 33934 ft | 564 kts | 38° |
| 2026-05-05 18:48 | 43.01564 | 6.36574 | 33934 ft | 565 kts | 39° |
| 2026-05-05 18:48 | 43.07536 | 6.43461 | 33940 ft | 565 kts | 39° |
| 2026-05-05 18:49 | 43.13524 | 6.50443 | 33919 ft | 565 kts | 39° |
| 2026-05-05 18:49 | 43.19493 | 6.57415 | 33922 ft | 563 kts | 39° |
| 2026-05-05 18:50 | 43.24949 | 6.65095 | 33935 ft | 563 kts | 53° |
| 2026-05-05 18:50 | 43.29515 | 6.73836 | 33927 ft | 564 kts | 57° |
| 2026-05-05 18:51 | 43.33920 | 6.82661 | 33928 ft | 564 kts | 57° |
| 2026-05-05 18:51 | 43.38450 | 6.91458 | 33930 ft | 563 kts | 55° |
| 2026-05-05 18:52 | 43.43025 | 7.00189 | 33959 ft | 563 kts | 55° |
| 2026-05-05 18:52 | 43.47619 | 7.08946 | 33938 ft | 565 kts | 55° |
| 2026-05-05 18:53 | 43.52177 | 7.17672 | 33936 ft | 565 kts | 56° |
| 2026-05-05 18:53 | 43.56753 | 7.26470 | 33933 ft | 565 kts | 56° |
| 2026-05-05 18:54 | 43.61319 | 7.35277 | 33948 ft | 565 kts | 56° |
| 2026-05-05 18:54 | 43.65875 | 7.44128 | 33935 ft | 566 kts | 56° |
| 2026-05-05 18:55 | 43.70434 | 7.52998 | 33931 ft | 566 kts | 56° |
| 2026-05-05 18:55 | 43.74957 | 7.61807 | 33913 ft | 565 kts | 56° |
| 2026-05-05 18:56 | 43.79480 | 7.70675 | 33934 ft | 564 kts | 56° |
| 2026-05-05 18:56 | 43.84558 | 7.78913 | 33943 ft | 563 kts | 40° |
| 2026-05-05 18:57 | 43.90726 | 7.85571 | 33956 ft | 561 kts | 33° |
| 2026-05-05 18:57 | 43.97456 | 7.90888 | 33969 ft | 554 kts | 17° |
| 2026-05-05 18:58 | 44.04768 | 7.93581 | 33963 ft | 545 kts | 4° |
| 2026-05-05 18:58 | 44.12201 | 7.95405 | 33959 ft | 545 kts | 5° |
| 2026-05-05 18:59 | 44.19650 | 7.97564 | 33952 ft | 548 kts | 7° |
| 2026-05-05 18:59 | 44.27068 | 7.99992 | 33952 ft | 547 kts | 7° |
| 2026-05-05 19:00 | 44.34473 | 8.02473 | 33964 ft | 548 kts | 7° |
| 2026-05-05 19:00 | 44.41831 | 8.04924 | 33954 ft | 547 kts | 7° |
| 2026-05-05 19:01 | 44.49231 | 8.07381 | 33949 ft | 547 kts | 7° |
| 2026-05-05 19:01 | 44.56645 | 8.09845 | 33949 ft | 547 kts | 7° |
| 2026-05-05 19:02 | 44.64051 | 8.12314 | 33948 ft | 547 kts | 7° |
| 2026-05-05 19:02 | 44.71423 | 8.14853 | 33965 ft | 549 kts | 10° |
| 2026-05-05 19:03 | 44.78720 | 8.18186 | 33952 ft | 552 kts | 14° |
| 2026-05-05 19:03 | 44.85892 | 8.21850 | 33954 ft | 552 kts | 15° |
| 2026-05-05 19:04 | 44.93121 | 8.25517 | 33956 ft | 552 kts | 14° |
| 2026-05-05 19:04 | 45.00342 | 8.29120 | 33948 ft | 550 kts | 14° |
| 2026-05-05 19:05 | 45.07561 | 8.32709 | 33952 ft | 550 kts | 14° |
| 2026-05-05 19:05 | 45.14779 | 8.36310 | 33956 ft | 549 kts | 14° |
| 2026-05-05 19:06 | 45.21919 | 8.39886 | 33959 ft | 548 kts | 14° |
| 2026-05-05 19:06 | 45.29107 | 8.43496 | 33969 ft | 548 kts | 14° |
| 2026-05-05 19:07 | 45.36286 | 8.47112 | 33990 ft | 546 kts | 14° |
| 2026-05-05 19:07 | 45.43443 | 8.50726 | 33989 ft | 545 kts | 15° |
| 2026-05-05 19:08 | 45.50536 | 8.54321 | 33968 ft | 545 kts | 15° |
| 2026-05-05 19:08 | 45.57680 | 8.57969 | 33966 ft | 545 kts | 15° |
| 2026-05-05 19:09 | 45.64818 | 8.61613 | 33992 ft | 544 kts | 15° |
| 2026-05-05 19:09 | 45.71936 | 8.65248 | 33942 ft | 542 kts | 14° |
| 2026-05-05 19:10 | 45.79034 | 8.68880 | 33981 ft | 542 kts | 14° |
| 2026-05-05 19:10 | 45.82593 | 8.70703 | 33807 ft | 544 kts | 14° |
| 2026-05-05 19:10 | 45.86138 | 8.72523 | 33551 ft | 538 kts | 15° |
| 2026-05-05 19:11 | 45.89594 | 8.74304 | 33277 ft | 533 kts | 15° |
| 2026-05-05 19:11 | 45.93083 | 8.76102 | 33015 ft | 532 kts | 15° |
| 2026-05-05 19:11 | 45.96565 | 8.77896 | 32748 ft | 532 kts | 15° |
| 2026-05-05 19:11 | 46.00046 | 8.79691 | 32493 ft | 532 kts | 15° |
| 2026-05-05 19:12 | 46.03525 | 8.81488 | 32249 ft | 531 kts | 15° |
| 2026-05-05 19:12 | 46.07004 | 8.83289 | 31992 ft | 530 kts | 16° |
| 2026-05-05 19:12 | 46.10468 | 8.85085 | 31732 ft | 529 kts | 16° |
| 2026-05-05 19:12 | 46.13934 | 8.86843 | 31469 ft | 527 kts | 13° |
| 2026-05-05 19:13 | 46.17428 | 8.88039 | 31225 ft | 521 kts | 3° |
| 2026-05-05 19:13 | 46.21013 | 8.88369 | 30979 ft | 513 kts | 352° |
| 2026-05-05 19:13 | 46.24538 | 8.87914 | 30747 ft | 508 kts | 346° |
| 2026-05-05 19:13 | 46.28022 | 8.87111 | 30497 ft | 506 kts | 344° |
| 2026-05-05 19:14 | 46.31496 | 8.86267 | 30257 ft | 507 kts | 345° |
| 2026-05-05 19:14 | 46.34987 | 8.85505 | 30061 ft | 507 kts | 346° |
| 2026-05-05 19:14 | 46.42003 | 8.84262 | 29994 ft | 509 kts | 348° |
| 2026-05-05 19:15 | 46.49008 | 8.83202 | 29978 ft | 511 kts | 348° |
| 2026-05-05 19:15 | 46.52546 | 8.82679 | 29708 ft | 511 kts | 348° |
| 2026-05-05 19:15 | 46.56072 | 8.82157 | 29435 ft | 507 kts | 348° |
| 2026-05-05 19:16 | 46.59577 | 8.81633 | 29044 ft | 506 kts | 348° |
| 2026-05-05 19:16 | 46.63067 | 8.81107 | 28637 ft | 502 kts | 349° |
| 2026-05-05 19:16 | 46.66525 | 8.80583 | 28205 ft | 498 kts | 349° |
| 2026-05-05 19:16 | 46.69955 | 8.80063 | 27790 ft | 494 kts | 349° |
| 2026-05-05 19:17 | 46.73366 | 8.79544 | 27394 ft | 491 kts | 349° |
| 2026-05-05 19:17 | 46.76700 | 8.79037 | 27006 ft | 487 kts | 349° |
| 2026-05-05 19:17 | 46.80036 | 8.78529 | 26630 ft | 484 kts | 349° |
| 2026-05-05 19:17 | 46.83377 | 8.78019 | 26229 ft | 481 kts | 349° |
| 2026-05-05 19:18 | 46.86696 | 8.77511 | 25857 ft | 479 kts | 350° |
| 2026-05-05 19:18 | 46.90001 | 8.77006 | 25473 ft | 475 kts | 350° |
| 2026-05-05 19:18 | 46.93281 | 8.76504 | 25073 ft | 472 kts | 350° |
| 2026-05-05 19:18 | 46.96532 | 8.76001 | 24692 ft | 468 kts | 350° |
| 2026-05-05 19:19 | 46.99763 | 8.75492 | 24312 ft | 466 kts | 350° |
| 2026-05-05 19:19 | 47.02974 | 8.74981 | 23939 ft | 463 kts | 350° |
| 2026-05-05 19:19 | 47.06125 | 8.74463 | 23574 ft | 460 kts | 349° |
| 2026-05-05 19:19 | 47.09319 | 8.73783 | 23175 ft | 455 kts | 348° |
| 2026-05-05 19:20 | 47.12377 | 8.73012 | 22732 ft | 449 kts | 347° |
| 2026-05-05 19:20 | 47.15440 | 8.72189 | 22304 ft | 445 kts | 346° |
| 2026-05-05 19:20 | 47.18489 | 8.71356 | 21876 ft | 442 kts | 346° |
| 2026-05-05 19:20 | 47.21487 | 8.70538 | 21463 ft | 439 kts | 346° |
| 2026-05-05 19:21 | 47.24488 | 8.69727 | 21062 ft | 436 kts | 347° |
| 2026-05-05 19:21 | 47.27410 | 8.68676 | 20662 ft | 431 kts | 339° |
| 2026-05-05 19:21 | 47.30187 | 8.67100 | 20254 ft | 426 kts | 333° |
| 2026-05-05 19:21 | 47.32870 | 8.65281 | 19869 ft | 423 kts | 331° |
| 2026-05-05 19:22 | 47.35509 | 8.63392 | 19479 ft | 420 kts | 331° |
| 2026-05-05 19:22 | 47.38078 | 8.61401 | 19099 ft | 416 kts | 327° |
| 2026-05-05 19:22 | 47.40569 | 8.59251 | 18719 ft | 413 kts | 326° |
| 2026-05-05 19:22 | 47.42979 | 8.57084 | 18355 ft | 411 kts | 325° |
| 2026-05-05 19:23 | 47.45399 | 8.54860 | 17953 ft | 407 kts | 323° |
| 2026-05-05 19:23 | 47.47624 | 8.52342 | 17523 ft | 401 kts | 313° |
| 2026-05-05 19:23 | 47.49383 | 8.49225 | 17089 ft | 391 kts | 298° |
| 2026-05-05 19:23 | 47.50469 | 8.45603 | 16688 ft | 382 kts | 282° |
| 2026-05-05 19:24 | 47.50835 | 8.41764 | 16278 ft | 375 kts | 269° |
| 2026-05-05 19:24 | 47.50722 | 8.37936 | 15795 ft | 371 kts | 263° |
| 2026-05-05 19:24 | 47.50448 | 8.34157 | 15323 ft | 368 kts | 261° |
| 2026-05-05 19:24 | 47.50151 | 8.30417 | 14834 ft | 364 kts | 261° |
| 2026-05-05 19:25 | 47.49875 | 8.26711 | 14364 ft | 361 kts | 262° |
| 2026-05-05 19:25 | 47.49624 | 8.23047 | 13980 ft | 356 kts | 262° |
| 2026-05-05 19:25 | 47.49410 | 8.19451 | 13632 ft | 356 kts | 264° |
| 2026-05-05 19:25 | 47.49427 | 8.15802 | 13225 ft | 355 kts | 271° |
| 2026-05-05 19:26 | 47.49683 | 8.12174 | 12962 ft | 353 kts | 274° |
| 2026-05-05 19:26 | 47.50023 | 8.08571 | 12914 ft | 354 kts | 275° |
| 2026-05-05 19:26 | 47.50325 | 8.04973 | 12892 ft | 352 kts | 268° |
| 2026-05-05 19:26 | 47.49999 | 8.01489 | 12817 ft | 332 kts | 250° |
| 2026-05-05 19:27 | 47.49097 | 7.98475 | 12543 ft | 311 kts | 241° |
| 2026-05-05 19:27 | 47.48082 | 7.95741 | 12288 ft | 296 kts | 239° |
| 2026-05-05 19:27 | 47.47095 | 7.93158 | 12021 ft | 282 kts | 239° |
| 2026-05-05 19:27 | 47.46200 | 7.90665 | 11747 ft | 268 kts | 249° |
| 2026-05-05 19:28 | 47.46068 | 7.88016 | 11475 ft | 264 kts | 279° |
| 2026-05-05 19:28 | 47.46975 | 7.85692 | 11224 ft | 268 kts | 313° |
| 2026-05-05 19:28 | 47.48651 | 7.84487 | 10967 ft | 276 kts | 347° |
| 2026-05-05 19:28 | 47.50592 | 7.84874 | 10912 ft | 292 kts | 22° |
| 2026-05-05 19:29 | 47.52175 | 7.86751 | 10901 ft | 297 kts | 55° |
| 2026-05-05 19:29 | 47.52999 | 7.89514 | 10896 ft | 293 kts | 83° |
| 2026-05-05 19:29 | 47.53012 | 7.92485 | 10903 ft | 289 kts | 102° |
| 2026-05-05 19:29 | 47.52690 | 7.95425 | 10912 ft | 290 kts | 104° |
| 2026-05-05 19:30 | 47.52335 | 7.98321 | 10894 ft | 289 kts | 105° |
| 2026-05-05 19:30 | 47.51982 | 8.01245 | 10898 ft | 290 kts | 104° |
| 2026-05-05 19:30 | 47.51735 | 8.04210 | 10908 ft | 290 kts | 102° |
| 2026-05-05 19:30 | 47.51345 | 8.07113 | 10898 ft | 285 kts | 113° |
| 2026-05-05 19:31 | 47.50580 | 8.09779 | 10907 ft | 280 kts | 124° |
| 2026-05-05 19:31 | 47.49529 | 8.12161 | 10909 ft | 274 kts | 135° |
| 2026-05-05 19:31 | 47.48225 | 8.14174 | 10899 ft | 268 kts | 147° |
| 2026-05-05 19:31 | 47.46700 | 8.15694 | 10895 ft | 261 kts | 159° |
| 2026-05-05 19:32 | 47.45024 | 8.16635 | 10901 ft | 255 kts | 172° |
| 2026-05-05 19:32 | 47.43285 | 8.16973 | 10901 ft | 250 kts | 184° |
| 2026-05-05 19:32 | 47.41582 | 8.16723 | 10903 ft | 246 kts | 197° |
| 2026-05-05 19:32 | 47.39992 | 8.15935 | 10901 ft | 243 kts | 208° |
| 2026-05-05 19:33 | 47.38559 | 8.14646 | 10901 ft | 241 kts | 219° |
| 2026-05-05 19:33 | 47.37362 | 8.12936 | 10896 ft | 240 kts | 231° |
| 2026-05-05 19:33 | 47.36447 | 8.10874 | 10906 ft | 241 kts | 242° |
| 2026-05-05 19:33 | 47.35858 | 8.08549 | 10901 ft | 243 kts | 253° |
| 2026-05-05 19:34 | 47.35521 | 8.06094 | 10914 ft | 245 kts | 257° |
| 2026-05-05 19:34 | 47.35243 | 8.03614 | 10912 ft | 245 kts | 257° |
| 2026-05-05 19:34 | 47.34971 | 8.01137 | 10908 ft | 245 kts | 257° |
| 2026-05-05 19:35 | 47.34426 | 7.96212 | 10904 ft | 245 kts | 257° |
| 2026-05-05 19:35 | 47.34154 | 7.93733 | 10905 ft | 245 kts | 258° |
| 2026-05-05 19:35 | 47.34002 | 7.91223 | 10900 ft | 247 kts | 266° |
| 2026-05-05 19:35 | 47.34175 | 7.88686 | 10901 ft | 253 kts | 281° |
| 2026-05-05 19:36 | 47.35019 | 7.86385 | 10898 ft | 263 kts | 308° |
| 2026-05-05 19:36 | 47.36562 | 7.84860 | 10899 ft | 276 kts | 335° |
| 2026-05-05 19:36 | 47.38489 | 7.84501 | 10899 ft | 287 kts | 3° |
| 2026-05-05 19:36 | 47.40395 | 7.85432 | 10901 ft | 294 kts | 30° |
| 2026-05-05 19:37 | 47.41877 | 7.87495 | 10892 ft | 296 kts | 58° |
| 2026-05-05 19:37 | 47.42662 | 7.90249 | 10916 ft | 284 kts | 79° |
| 2026-05-05 19:37 | 47.43059 | 7.93064 | 10911 ft | 285 kts | 83° |
| 2026-05-05 19:37 | 47.43416 | 7.95977 | 10902 ft | 285 kts | 83° |
| 2026-05-05 19:38 | 47.43758 | 7.98809 | 10910 ft | 284 kts | 83° |
| 2026-05-05 19:38 | 47.44107 | 8.01677 | 10905 ft | 284 kts | 83° |
| 2026-05-05 19:38 | 47.44456 | 8.04550 | 10899 ft | 284 kts | 83° |
| 2026-05-05 19:38 | 47.44802 | 8.07428 | 10907 ft | 285 kts | 83° |
| 2026-05-05 19:39 | 47.45146 | 8.10303 | 10898 ft | 283 kts | 86° |
| 2026-05-05 19:39 | 47.45060 | 8.13156 | 10896 ft | 275 kts | 108° |
| 2026-05-05 19:39 | 47.44550 | 8.15858 | 10906 ft | 273 kts | 112° |
| 2026-05-05 19:39 | 47.43977 | 8.18536 | 10904 ft | 273 kts | 113° |
| 2026-05-05 19:40 | 47.43404 | 8.21214 | 10897 ft | 273 kts | 113° |
| 2026-05-05 19:40 | 47.42840 | 8.23852 | 10899 ft | 273 kts | 113° |
| 2026-05-05 19:40 | 47.42265 | 8.26528 | 10897 ft | 274 kts | 113° |
| 2026-05-05 19:40 | 47.41689 | 8.29209 | 10910 ft | 273 kts | 113° |
| 2026-05-05 19:41 | 47.41113 | 8.31876 | 10905 ft | 273 kts | 113° |
| 2026-05-05 19:41 | 47.40533 | 8.34545 | 10902 ft | 272 kts | 112° |
| 2026-05-05 19:41 | 47.39941 | 8.37177 | 10898 ft | 269 kts | 113° |
| 2026-05-05 19:41 | 47.39339 | 8.39788 | 10905 ft | 269 kts | 113° |
| 2026-05-05 19:42 | 47.38730 | 8.42357 | 10906 ft | 268 kts | 115° |
| 2026-05-05 19:42 | 47.38011 | 8.44923 | 10913 ft | 267 kts | 118° |
| 2026-05-05 19:42 | 47.37280 | 8.47402 | 10908 ft | 267 kts | 118° |
| 2026-05-05 19:42 | 47.36539 | 8.49911 | 10911 ft | 266 kts | 118° |
| 2026-05-05 19:43 | 47.35799 | 8.52413 | 10886 ft | 267 kts | 118° |
| 2026-05-05 19:43 | 47.35055 | 8.54921 | 10886 ft | 267 kts | 118° |
| 2026-05-05 19:43 | 47.34307 | 8.57431 | 10830 ft | 268 kts | 118° |
| 2026-05-05 19:43 | 47.33559 | 8.59941 | 10579 ft | 266 kts | 118° |
| 2026-05-05 19:44 | 47.32816 | 8.62434 | 10335 ft | 265 kts | 118° |
| 2026-05-05 19:44 | 47.32076 | 8.64908 | 10099 ft | 263 kts | 118° |
| 2026-05-05 19:44 | 47.31338 | 8.67370 | 9848 ft | 261 kts | 118° |
| 2026-05-05 19:44 | 47.30608 | 8.69816 | 9594 ft | 261 kts | 115° |
| 2026-05-05 19:45 | 47.30316 | 8.72469 | 9308 ft | 267 kts | 88° |
| 2026-05-05 19:45 | 47.30642 | 8.75124 | 9064 ft | 265 kts | 79° |
| 2026-05-05 19:45 | 47.31080 | 8.77735 | 8805 ft | 261 kts | 78° |
| 2026-05-05 19:45 | 47.31609 | 8.80294 | 8539 ft | 262 kts | 68° |
| 2026-05-05 19:46 | 47.32411 | 8.82711 | 8197 ft | 262 kts | 63° |
| 2026-05-05 19:46 | 47.33258 | 8.85074 | 7942 ft | 261 kts | 63° |
| 2026-05-05 19:46 | 47.34079 | 8.87377 | 7695 ft | 244 kts | 63° |
| 2026-05-05 19:46 | 47.34850 | 8.89554 | 7432 ft | 238 kts | 63° |
| 2026-05-05 19:47 | 47.35610 | 8.91713 | 7174 ft | 236 kts | 61° |
| 2026-05-05 19:47 | 47.36688 | 8.93508 | 6915 ft | 234 kts | 30° |
| 2026-05-05 19:47 | 47.38183 | 8.94207 | 6664 ft | 226 kts | 357° |
| 2026-05-05 19:47 | 47.39651 | 8.93631 | 6415 ft | 216 kts | 323° |
| 2026-05-05 19:48 | 47.40681 | 8.92122 | 6199 ft | 211 kts | 304° |
| 2026-05-05 19:48 | 47.41558 | 8.90387 | 5980 ft | 209 kts | 303° |
| 2026-05-05 19:48 | 47.42413 | 8.88687 | 5840 ft | 198 kts | 303° |
| 2026-05-05 19:48 | 47.43193 | 8.87114 | 5688 ft | 188 kts | 296° |
| 2026-05-05 19:49 | 47.43540 | 8.85324 | 5537 ft | 181 kts | 276° |
| 2026-05-05 19:49 | 47.43651 | 8.84093 | 5380 ft | 182 kts | 276° |
| 2026-05-05 19:49 | 47.43886 | 8.81646 | 5036 ft | 179 kts | 275° |
| 2026-05-05 19:49 | 47.44020 | 8.79837 | 4769 ft | 171 kts | 275° |
| 2026-05-05 19:50 | 47.44139 | 8.78184 | 4493 ft | 159 kts | 275° |
| 2026-05-05 19:50 | 47.44255 | 8.76559 | 4291 ft | 158 kts | 273° |
| 2026-05-05 19:50 | 47.44371 | 8.74955 | 4037 ft | 156 kts | 273° |
| 2026-05-05 19:50 | 47.44484 | 8.73358 | 3840 ft | 157 kts | 273° |
| 2026-05-05 19:51 | 47.44599 | 8.71750 | 3610 ft | 158 kts | 273° |
| 2026-05-05 19:51 | 47.44713 | 8.70159 | 3406 ft | 159 kts | 273° |
| 2026-05-05 19:51 | 47.44830 | 8.68539 | 3148 ft | 159 kts | 273° |
| 2026-05-05 19:51 | 47.44943 | 8.66905 | 2907 ft | 161 kts | 273° |
| 2026-05-05 19:52 | 47.45068 | 8.65254 | 2698 ft | 164 kts | 273° |
| 2026-05-05 19:52 | 47.45191 | 8.63570 | 2456 ft | 165 kts | 274° |
| 2026-05-05 19:52 | 47.45314 | 8.61881 | 2214 ft | 165 kts | 274° |
| 2026-05-05 19:52 | 47.45437 | 8.60182 | 1949 ft | 168 kts | 274° |
| 2026-05-05 19:53 | 47.45516 | 8.59039 | 1768 ft | 171 kts | 275° |
| 2026-05-05 19:53 | 47.45642 | 8.57306 | 1505 ft | 169 kts | 274° |
| 2026-05-05 19:53 | 47.45760 | 8.55723 | 1416 ft | 132 kts | 275° |
| 2026-05-05 19:53 | 47.45822 | 8.54788 | 1405 ft | 53 kts | 275° |
| 2026-05-05 19:54 | 47.45781 | 8.54354 | 1401 ft | 19 kts | 246° |
| 2026-05-05 19:54 | 47.45718 | 8.54220 | 1396 ft | 15 kts | 210° |
| 2026-05-05 19:54 | 47.45633 | 8.54238 | 1405 ft | 11 kts | 140° |
| 2026-05-05 19:54 | 47.45610 | 8.54297 | 1403 ft | 9 kts | 111° |
| 2026-05-05 19:55 | 47.45587 | 8.54395 | 1404 ft | 13 kts | 108° |
| 2026-05-05 19:55 | 47.45556 | 8.54537 | 1405 ft | 15 kts | 108° |
| 2026-05-05 19:55 | 47.45525 | 8.54674 | 1406 ft | 13 kts | 108° |
| 2026-05-05 19:55 | 47.45498 | 8.54799 | 1409 ft | 12 kts | 108° |
| 2026-05-05 19:56 | 47.45470 | 8.54916 | 1404 ft | 11 kts | 109° |
| 2026-05-05 19:56 | 47.45446 | 8.55016 | 1407 ft | 10 kts | 109° |
| 2026-05-05 19:56 | 47.45418 | 8.55136 | 1409 ft | 15 kts | 109° |
| 2026-05-05 19:56 | 47.45389 | 8.55255 | 1412 ft | 8 kts | 113° |
| 2026-05-05 19:57 | 47.45384 | 8.55270 | 1412 ft | 0 kts | 116° |
| 2026-05-05 19:57 | 47.45384 | 8.55271 | 1411 ft | 0 kts | 116° |
| 2026-05-05 19:58 | 47.45378 | 8.55317 | 1407 ft | 9 kts | 90° |
| 2026-05-05 19:58 | 47.45399 | 8.55416 | 1414 ft | 9 kts | 67° |
| 2026-05-05 19:58 | 47.45398 | 8.55469 | 1418 ft | 3 kts | 111° |
| 2026-05-05 19:58 | 47.45372 | 8.55507 | 1418 ft | 8 kts | 144° |
| 2026-05-05 19:59 | 47.45292 | 8.55521 | 1417 ft | 16 kts | 183° |
| 2026-05-05 19:59 | 47.45185 | 8.55524 | 1413 ft | 13 kts | 166° |
| 2026-05-05 19:59 | 47.45106 | 8.55572 | 1417 ft | 12 kts | 155° |
| 2026-05-05 19:59 | 47.45032 | 8.55623 | 1414 ft | 12 kts | 155° |
| 2026-05-05 20:00 | 47.44975 | 8.55679 | 1406 ft | 8 kts | 127° |
| 2026-05-05 20:00 | 47.44958 | 8.55749 | 1413 ft | 8 kts | 101° |
| 2026-05-05 20:00 | 47.44949 | 8.55854 | 1413 ft | 10 kts | 96° |
| 2026-05-05 20:00 | 47.44922 | 8.55938 | 1415 ft | 10 kts | 137° |
| 2026-05-05 20:01 | 47.44860 | 8.55989 | 1414 ft | 11 kts | 154° |
| 2026-05-05 20:01 | 47.44820 | 8.56033 | 1410 ft | 4 kts | 114° |
| 2026-05-05 20:01 | 47.44829 | 8.56081 | 1414 ft | 7 kts | 66° |
| 2026-05-05 20:01 | 47.44844 | 8.56129 | 1415 ft | 3 kts | 65° |
| 2026-05-05 20:02 | 47.44845 | 8.56134 | 1415 ft | 0 kts | 65° |
| 2026-05-05 20:04 | 47.44845 | 8.56135 | 1415 ft | 0 kts | 65° |